Time;durP1;ratioP1;P1;durP2;ratioP2;P2;SDS_P1;SDS_P2;PMS_P1;PMS_P2;Temp;Humidity;BMP_temperature;BMP_pressure;BME280_temperature;BME280_humidity;BME280_pressure;Samples;Min_cycle;Max_cycle;Signal;HPM_P1;HPM_P2
2021/12/10 00:29:50;;;;;;;61.63;25.42;;;;;;;;;;6172355;28;20518;-60
2021/12/10 00:33:15;;;;;;;69.72;27.23;;;;;;;;;;6155117;28;20082;-60
2021/12/10 00:36:16;;;;;;;69.53;27.55;;;;;;;;;;6162437;28;20075;-62
2021/12/10 00:39:37;;;;;;;67.03;26.85;;;;;;;;;;6166277;28;20090;-59
2021/12/10 00:42:38;;;;;;;68.57;27.38;;;;;;;;;;6165710;28;20137;-60
2021/12/10 00:45:39;;;;;;;60.30;25.92;;;;;;;;;;6167148;28;20792;-60
2021/12/10 00:48:40;;;;;;;69.22;27.77;;;;;;;;;;6159091;28;20058;-63
2021/12/10 00:51:41;;;;;;;62.60;26.38;;;;;;;;;;6164052;28;20047;-59
2021/12/10 00:54:42;;;;;;;64.10;24.67;;;;;;;;;;6159706;28;20466;-60
2021/12/10 00:57:43;;;;;;;65.43;26.65;;;;;;;;;;6161171;28;20090;-61
2021/12/10 01:00:56;;;;;;;63.97;27.92;;;;;;;;;;6159076;28;20134;-60
2021/12/10 01:04:09;;;;;;;60.50;25.58;;;;;;;;;;6159499;28;20067;-61
2021/12/10 01:07:13;;;;;;;65.95;26.42;;;;;;;;;;6160392;28;20047;-63
2021/12/10 01:10:14;;;;;;;62.92;25.73;;;;;;;;;;6158516;28;20194;-60
2021/12/10 01:13:18;;;;;;;57.70;24.25;;;;;;;;;;6160381;28;20051;-61
2021/12/10 01:26:24;;;;;;;60.05;25.25;;;;;;;;;;6164321;28;20541;-63
2021/12/10 01:29:27;;;;;;;62.55;27.52;;;;;;;;;;6164907;28;20051;-62
2021/12/10 01:32:33;;;;;;;65.35;29.88;;;;;;;;;;6190247;28;20497;-66
2021/12/10 01:35:37;;;;;;;60.67;25.77;;;;;;;;;;6192234;28;20148;-63
2021/12/10 01:38:41;;;;;;;62.20;26.30;;;;;;;;;;6189596;28;20054;-59
2021/12/10 01:41:53;;;;;;;74.75;31.83;;;;;;;;;;6196637;28;20144;-61
2021/12/10 01:44:57;;;;;;;65.18;29.25;;;;;;;;;;6189829;28;20053;-61
2021/12/10 01:48:06;;;;;;;57.30;25.67;;;;;;;;;;6200929;28;20046;-65
2021/12/10 01:51:09;;;;;;;58.42;26.42;;;;;;;;;;6213463;28;20378;-63
2021/12/10 01:54:18;;;;;;;63.28;26.17;;;;;;;;;;6211948;28;20080;-60
2021/12/10 01:57:22;;;;;;;67.30;28.27;;;;;;;;;;6206467;28;20049;-61
2021/12/10 02:00:26;;;;;;;65.65;26.42;;;;;;;;;;6199581;28;20041;-60
2021/12/10 02:03:27;;;;;;;61.17;26.83;;;;;;;;;;6199737;28;20046;-61
2021/12/10 02:06:28;;;;;;;67.07;27.80;;;;;;;;;;6197810;28;20045;-67
2021/12/10 02:09:29;;;;;;;69.22;28.02;;;;;;;;;;6200569;28;20077;-60
2021/12/10 02:12:30;;;;;;;67.75;28.23;;;;;;;;;;6201676;28;20612;-60
2021/12/10 02:15:31;;;;;;;75.70;30.42;;;;;;;;;;6200614;28;20136;-61
2021/12/10 02:18:32;;;;;;;78.95;32.45;;;;;;;;;;6196684;28;20052;-61
2021/12/10 02:21:34;;;;;;;82.82;33.75;;;;;;;;;;6198979;28;20074;-60
2021/12/10 02:24:35;;;;;;;89.97;35.13;;;;;;;;;;6202771;28;20053;-60
2021/12/10 02:27:36;;;;;;;80.22;32.25;;;;;;;;;;6197295;28;20460;-63
2021/12/10 02:30:37;;;;;;;98.53;44.58;;;;;;;;;;6198991;28;20049;-60
2021/12/10 02:33:38;;;;;;;111.38;56.75;;;;;;;;;;6194261;28;20043;-60
2021/12/10 02:36:42;;;;;;;86.28;38.03;;;;;;;;;;6199784;28;20080;-65
2021/12/10 02:39:42;;;;;;;80.65;37.20;;;;;;;;;;6200683;28;20070;-61
2021/12/10 02:42:44;;;;;;;79.88;33.30;;;;;;;;;;6201517;28;20042;-61
2021/12/10 02:45:48;;;;;;;74.90;33.08;;;;;;;;;;6196738;28;20522;-60
2021/12/10 02:48:50;;;;;;;71.68;28.95;;;;;;;;;;6199654;28;20047;-60
2021/12/10 02:51:52;;;;;;;78.57;31.50;;;;;;;;;;6197650;28;20042;-60
2021/12/10 02:54:54;;;;;;;84.00;33.05;;;;;;;;;;6199281;28;20137;-61
2021/12/10 02:57:58;;;;;;;93.70;35.93;;;;;;;;;;6197087;28;20054;-62
2021/12/10 03:01:04;;;;;;;102.60;37.05;;;;;;;;;;6206226;28;20082;-61
2021/12/10 03:04:07;;;;;;;126.85;42.72;;;;;;;;;;6204620;28;20056;-60
2021/12/10 03:07:13;;;;;;;117.93;40.22;;;;;;;;;;6204397;28;20069;-66
2021/12/10 03:10:20;;;;;;;113.38;37.95;;;;;;;;;;6202355;28;20444;-60
2021/12/10 03:13:21;;;;;;;97.40;38.17;;;;;;;;;;6204942;28;20078;-62
2021/12/10 03:16:22;;;;;;;114.88;44.97;;;;;;;;;;6202700;28;20510;-60
2021/12/10 03:19:24;;;;;;;105.90;42.17;;;;;;;;;;6192347;28;20061;-60
2021/12/10 03:22:26;;;;;;;88.90;39.75;;;;;;;;;;6203423;28;20054;-61
2021/12/10 03:25:27;;;;;;;92.32;36.38;;;;;;;;;;6201047;28;20065;-63
2021/12/10 03:28:28;;;;;;;87.03;38.43;;;;;;;;;;6202908;28;20060;-61
2021/12/10 03:31:29;;;;;;;89.32;36.05;;;;;;;;;;6204078;28;20046;-63
2021/12/10 03:34:30;;;;;;;82.78;35.28;;;;;;;;;;6205552;28;20049;-60
2021/12/10 03:37:31;;;;;;;83.28;34.85;;;;;;;;;;6201077;28;20050;-60
2021/12/10 03:40:33;;;;;;;81.85;33.33;;;;;;;;;;6200891;28;20161;-60
2021/12/10 03:43:34;;;;;;;88.93;33.72;;;;;;;;;;6201286;28;20085;-60
2021/12/10 03:46:35;;;;;;;85.05;33.83;;;;;;;;;;6209527;28;20064;-60
2021/12/10 03:49:37;;;;;;;86.50;35.27;;;;;;;;;;6203369;28;20054;-60
2021/12/10 03:52:38;;;;;;;91.53;37.25;;;;;;;;;;6203997;28;20096;-60
2021/12/10 03:55:40;;;;;;;79.53;35.85;;;;;;;;;;6194369;28;20105;-64
2021/12/10 03:58:42;;;;;;;84.40;35.22;;;;;;;;;;6201793;28;20037;-61
2021/12/10 04:01:47;;;;;;;88.90;35.80;;;;;;;;;;6204364;28;20165;-60
2021/12/10 04:04:49;;;;;;;84.15;34.72;;;;;;;;;;6199085;28;20061;-61
2021/12/10 04:07:51;;;;;;;87.68;35.70;;;;;;;;;;6208948;28;20184;-60
2021/12/10 04:10:53;;;;;;;86.65;36.00;;;;;;;;;;6202869;28;20484;-59
2021/12/10 04:13:54;;;;;;;;;;;;;;;;;;6202368;28;20085;-61
2021/12/10 04:16:56;;;;;;;90.60;35.22;;;;;;;;;;6204397;28;20060;-62
2021/12/10 04:19:58;;;;;;;86.18;35.92;;;;;;;;;;6199888;28;20038;-63
2021/12/10 04:23:01;;;;;;;104.85;40.30;;;;;;;;;;6202291;28;20052;-60
2021/12/10 04:26:03;;;;;;;110.95;41.30;;;;;;;;;;6198335;28;20053;-59
2021/12/10 04:29:05;;;;;;;109.53;40.30;;;;;;;;;;6200804;28;20050;-61
2021/12/10 04:32:07;;;;;;;110.72;40.38;;;;;;;;;;6209487;28;20108;-61
2021/12/10 04:35:10;;;;;;;111.70;40.55;;;;;;;;;;6198774;28;20100;-62
2021/12/10 04:38:12;;;;;;;105.40;40.67;;;;;;;;;;6202768;28;20058;-64
2021/12/10 04:41:13;;;;;;;106.03;42.03;;;;;;;;;;6206120;28;20468;-62
2021/12/10 04:44:14;;;;;;;104.35;43.65;;;;;;;;;;6216335;28;20092;-60
2021/12/10 04:47:14;;;;;;;109.95;43.63;;;;;;;;;;6211258;28;20112;-59
2021/12/10 04:50:18;;;;;;;107.35;43.35;;;;;;;;;;6202269;28;20054;-61
2021/12/10 04:53:18;;;;;;;98.88;42.75;;;;;;;;;;6197770;28;20563;-60
2021/12/10 04:56:20;;;;;;;103.57;42.38;;;;;;;;;;6206463;28;20081;-59
2021/12/10 04:59:22;;;;;;;94.90;39.90;;;;;;;;;;6203051;28;20042;-60
2021/12/10 05:02:23;;;;;;;93.18;38.15;;;;;;;;;;6201143;28;20041;-59
2021/12/10 05:05:24;;;;;;;89.82;37.40;;;;;;;;;;6203695;28;20180;-61
2021/12/10 05:08:24;;;;;;;92.20;38.17;;;;;;;;;;6203543;28;20516;-63
2021/12/10 05:11:25;;;;;;;95.07;38.25;;;;;;;;;;6198786;28;20043;-59
2021/12/10 05:14:27;;;;;;;97.38;38.75;;;;;;;;;;6198503;28;20058;-60
2021/12/10 05:17:30;;;;;;;87.30;35.47;;;;;;;;;;6201224;28;20049;-59
2021/12/10 05:20:35;;;;;;;87.28;34.28;;;;;;;;;;6197827;28;20493;-60
2021/12/10 05:23:36;;;;;;;91.07;35.85;;;;;;;;;;6195248;28;20168;-60
2021/12/10 05:26:38;;;;;;;81.93;34.63;;;;;;;;;;6200416;28;20057;-63
2021/12/10 05:29:39;;;;;;;88.00;33.83;;;;;;;;;;6194793;28;20493;-61
2021/12/10 05:32:40;;;;;;;90.10;33.92;;;;;;;;;;6203051;28;20077;-60
2021/12/10 05:35:41;;;;;;;92.38;36.70;;;;;;;;;;6198748;28;20173;-62
2021/12/10 05:38:42;;;;;;;85.40;35.07;;;;;;;;;;6200046;28;21212;-60
2021/12/10 05:41:43;;;;;;;78.90;31.10;;;;;;;;;;6198542;28;20056;-61
2021/12/10 05:44:43;;;;;;;83.40;32.65;;;;;;;;;;6201911;28;20137;-60
2021/12/10 05:47:46;;;;;;;78.85;33.03;;;;;;;;;;6202186;28;20121;-63
2021/12/10 05:50:48;;;;;;;76.88;29.88;;;;;;;;;;6197320;28;20060;-63
2021/12/10 05:53:49;;;;;;;79.13;30.45;;;;;;;;;;6200459;28;20046;-59
2021/12/10 05:56:49;;;;;;;76.00;31.63;;;;;;;;;;6199486;28;20116;-60
2021/12/10 05:59:50;;;;;;;71.75;28.60;;;;;;;;;;6199237;28;20061;-62
2021/12/10 06:02:51;;;;;;;60.33;24.15;;;;;;;;;;6201202;28;20065;-63
2021/12/10 06:05:52;;;;;;;57.90;24.77;;;;;;;;;;6196902;28;20038;-61
2021/12/10 06:08:54;;;;;;;55.92;24.02;;;;;;;;;;6200407;28;20632;-62
2021/12/10 06:11:55;;;;;;;56.15;22.70;;;;;;;;;;6196780;28;20065;-62
2021/12/10 06:14:56;;;;;;;47.25;20.75;;;;;;;;;;6200748;28;20526;-61
2021/12/10 06:17:58;;;;;;;52.70;21.83;;;;;;;;;;6200732;28;20060;-61
2021/12/10 06:20:59;;;;;;;;;;;;;;;;;;6203260;28;20117;-61
2021/12/10 06:24:00;;;;;;;51.30;20.63;;;;;;;;;;6198303;28;20008;-60
2021/12/10 06:27:02;;;;;;;54.35;21.67;;;;;;;;;;6198245;28;20712;-62
2021/12/10 06:30:04;;;;;;;50.47;23.88;;;;;;;;;;6200966;28;20052;-62
2021/12/10 06:33:11;;;;;;;46.20;21.45;;;;;;;;;;6199960;28;20142;-60
2021/12/10 06:36:12;;;;;;;44.00;20.13;;;;;;;;;;6203451;28;20046;-63
2021/12/10 06:39:13;;;;;;;48.53;20.73;;;;;;;;;;6200180;28;20066;-63
2021/12/10 06:42:14;;;;;;;44.00;20.40;;;;;;;;;;6203694;28;20825;-63
2021/12/10 06:45:17;;;;;;;44.05;19.10;;;;;;;;;;6207998;28;20053;-60
2021/12/10 06:48:19;;;;;;;44.38;20.75;;;;;;;;;;6217124;28;20508;-61
2021/12/10 06:51:21;;;;;;;47.03;20.27;;;;;;;;;;6206089;28;20543;-60
2021/12/10 06:54:21;;;;;;;42.60;20.13;;;;;;;;;;6214658;28;20045;-64
2021/12/10 06:57:22;;;;;;;46.30;20.08;;;;;;;;;;6218550;28;20050;-65
2021/12/10 07:00:31;;;;;;;51.88;21.67;;;;;;;;;;6215630;28;20129;-61
2021/12/10 07:03:34;;;;;;;52.95;20.92;;;;;;;;;;6210990;28;20045;-66
2021/12/10 07:06:37;;;;;;;58.63;24.13;;;;;;;;;;6212074;28;20493;-65
2021/12/10 07:09:38;;;;;;;85.05;33.70;;;;;;;;;;6211243;28;20131;-59
2021/12/10 07:12:40;;;;;;;77.20;30.17;;;;;;;;;;6202844;28;20524;-63
2021/12/10 07:15:43;;;;;;;;;;;;;;;;;;6200641;28;20074;-59
2021/12/10 07:18:44;;;;;;;67.80;27.17;;;;;;;;;;6216247;28;19921;-57
2021/12/10 07:21:45;;;;;;;68.35;29.35;;;;;;;;;;6214826;28;20438;-57
2021/12/10 07:24:45;;;;;;;72.78;29.50;;;;;;;;;;6216375;28;20138;-61
2021/12/10 07:27:48;;;;;;;66.85;29.88;;;;;;;;;;6204091;28;20497;-56
2021/12/10 07:30:49;;;;;;;;;;;;;;;;;;6205504;28;20046;-62
2021/12/10 07:33:50;;;;;;;72.38;32.10;;;;;;;;;;6193985;28;19980;-60
2021/12/10 07:36:51;;;;;;;67.78;30.48;;;;;;;;;;6215910;28;20077;-61
2021/12/10 07:39:52;;;;;;;80.72;34.38;;;;;;;;;;6213211;28;20053;-64
2021/12/10 07:42:52;;;;;;;80.10;36.35;;;;;;;;;;6216849;28;20492;-61
2021/12/10 07:45:54;;;;;;;69.93;30.02;;;;;;;;;;6209973;28;20050;-61
2021/12/10 07:48:55;;;;;;;56.55;27.90;;;;;;;;;;6210483;28;20834;-62
2021/12/10 07:51:57;;;;;;;60.15;27.90;;;;;;;;;;6210151;28;20151;-64
2021/12/10 07:54:58;;;;;;;85.57;36.00;;;;;;;;;;6198032;28;20043;-63
2021/12/10 07:58:00;;;;;;;82.68;36.63;;;;;;;;;;6214704;28;20143;-61
2021/12/10 08:01:07;;;;;;;83.50;36.35;;;;;;;;;;6215553;28;20053;-60
2021/12/10 08:04:07;;;;;;;90.72;41.63;;;;;;;;;;6215662;28;20204;-59
2021/12/10 08:07:08;;;;;;;109.78;51.50;;;;;;;;;;6214951;28;20046;-61
2021/12/10 08:10:12;;;;;;;110.45;49.33;;;;;;;;;;6215231;28;20157;-62
2021/12/10 08:13:13;;;;;;;81.30;36.15;;;;;;;;;;6208332;28;20050;-60
2021/12/10 08:16:15;;;;;;;74.43;31.80;;;;;;;;;;6196780;28;20085;-60
2021/12/10 08:19:15;;;;;;;64.65;29.75;;;;;;;;;;6192771;28;20051;-62
2021/12/10 08:22:16;;;;;;;70.90;32.97;;;;;;;;;;6206550;28;20053;-61
2021/12/10 08:25:19;;;;;;;71.25;34.50;;;;;;;;;;6216434;28;20050;-61
2021/12/10 08:28:23;;;;;;;84.07;40.30;;;;;;;;;;6194699;28;20124;-61
2021/12/10 08:31:24;;;;;;;98.50;46.63;;;;;;;;;;6191276;28;20454;-63
2021/12/10 08:34:24;;;;;;;104.00;46.53;;;;;;;;;;6197877;28;20128;-62
2021/12/10 08:37:25;;;;;;;124.05;52.78;;;;;;;;;;6214454;28;20042;-62
2021/12/10 08:40:31;;;;;;;130.00;59.30;;;;;;;;;;6184361;28;20482;-60
2021/12/10 08:43:32;;;;;;;105.95;53.45;;;;;;;;;;6189553;28;20135;-59
2021/12/10 08:46:33;;;;;;;110.75;54.17;;;;;;;;;;6185712;28;20062;-64
2021/12/10 08:49:33;;;;;;;107.35;53.15;;;;;;;;;;6179326;28;20124;-64
2021/12/10 08:52:34;;;;;;;90.95;42.63;;;;;;;;;;6186219;28;20046;-63
2021/12/10 08:55:36;;;;;;;82.65;38.78;;;;;;;;;;6188303;28;20120;-60
2021/12/10 08:58:37;;;;;;;85.85;38.38;;;;;;;;;;6182751;28;20414;-64
2021/12/10 09:01:42;;;;;;;93.22;39.85;;;;;;;;;;6180935;28;20108;-60
2021/12/10 09:04:44;;;;;;;89.85;40.88;;;;;;;;;;6190484;28;21599;-62
2021/12/10 09:07:46;;;;;;;89.95;41.17;;;;;;;;;;6187978;28;20865;-62
2021/12/10 09:10:48;;;;;;;97.40;45.30;;;;;;;;;;6187668;28;20049;-59
2021/12/10 09:13:49;;;;;;;96.78;45.90;;;;;;;;;;6185905;28;20049;-66
2021/12/10 09:16:50;;;;;;;103.60;45.28;;;;;;;;;;6186130;28;20169;-60
2021/12/10 09:19:53;;;;;;;98.75;44.60;;;;;;;;;;6182320;28;20095;-60
2021/12/10 09:22:53;;;;;;;;;;;;;;;;;;6185257;28;20979;-61
2021/12/10 09:25:58;;;;;;;94.18;45.90;;;;;;;;;;6185240;28;19941;-63
2021/12/10 09:29:02;;;;;;;92.20;44.78;;;;;;;;;;6179113;28;20125;-62
2021/12/10 09:32:07;;;;;;;100.95;45.20;;;;;;;;;;6189406;28;20058;-60
2021/12/10 09:35:09;;;;;;;101.03;46.10;;;;;;;;;;6194315;28;20077;-59
2021/12/10 09:38:10;;;;;;;101.30;46.22;;;;;;;;;;6179457;28;20054;-56
2021/12/10 09:41:12;;;;;;;106.53;48.15;;;;;;;;;;6184374;28;20054;-61
2021/12/10 09:44:15;;;;;;;113.38;48.83;;;;;;;;;;6181403;28;20160;-63
2021/12/10 09:47:16;;;;;;;108.63;52.47;;;;;;;;;;6183388;28;20078;-67
2021/12/10 09:50:19;;;;;;;106.28;50.20;;;;;;;;;;6179591;28;20430;-60
2021/12/10 09:53:20;;;;;;;113.25;49.97;;;;;;;;;;6185991;28;20678;-62
2021/12/10 09:56:22;;;;;;;106.32;51.80;;;;;;;;;;6183745;28;20068;-61
2021/12/10 09:59:24;;;;;;;111.80;49.40;;;;;;;;;;6182590;28;20520;-61
2021/12/10 10:02:25;;;;;;;114.15;52.42;;;;;;;;;;6186650;28;20053;-67
2021/12/10 10:05:29;;;;;;;138.95;58.83;;;;;;;;;;6192918;28;20083;-63
2021/12/10 10:08:32;;;;;;;142.50;59.58;;;;;;;;;;6183086;28;20046;-63
2021/12/10 10:11:34;;;;;;;125.45;54.38;;;;;;;;;;6189704;28;20046;-66
2021/12/10 10:14:37;;;;;;;124.50;54.88;;;;;;;;;;6187602;28;20057;-63
2021/12/10 10:17:38;;;;;;;112.75;50.65;;;;;;;;;;6190605;28;20050;-63
2021/12/10 10:20:47;;;;;;;114.80;50.85;;;;;;;;;;6186008;28;20173;-63
2021/12/10 10:23:48;;;;;;;113.28;52.53;;;;;;;;;;6188569;28;20077;-62
2021/12/10 10:26:59;;;;;;;108.35;49.88;;;;;;;;;;6193551;28;20893;-60
2021/12/10 10:30:06;;;;;;;104.25;49.28;;;;;;;;;;6179265;28;20619;-63
2021/12/10 10:33:09;;;;;;;118.03;53.38;;;;;;;;;;6185871;28;20073;-62
2021/12/10 10:36:19;;;;;;;112.60;51.90;;;;;;;;;;6187577;28;20085;-61
2021/12/10 10:39:32;;;;;;;99.78;45.47;;;;;;;;;;6184220;28;20042;-62
2021/12/10 10:42:33;;;;;;;95.13;45.83;;;;;;;;;;6185853;28;20054;-62
2021/12/10 10:45:36;;;;;;;133.45;58.97;;;;;;;;;;6184177;28;20055;-62
2021/12/10 10:48:37;;;;;;;188.77;79.38;;;;;;;;;;6179317;28;20562;-61
2021/12/10 10:51:40;;;;;;;118.70;53.80;;;;;;;;;;6183856;28;20048;-62
2021/12/10 10:54:42;;;;;;;106.15;48.25;;;;;;;;;;6181337;28;20050;-62
2021/12/10 10:57:56;;;;;;;115.57;59.87;;;;;;;;;;6185986;28;20425;-61
2021/12/10 11:01:08;;;;;;;99.78;49.92;;;;;;;;;;6190342;28;20340;-66
2021/12/10 11:04:23;;;;;;;99.68;48.55;;;;;;;;;;6182233;28;20046;-62
2021/12/10 11:07:27;;;;;;;88.60;44.45;;;;;;;;;;6188849;28;20131;-62
2021/12/10 11:10:35;;;;;;;94.95;45.15;;;;;;;;;;6180520;28;20092;-62
2021/12/10 11:13:36;;;;;;;106.45;48.72;;;;;;;;;;6185251;28;20154;-62
2021/12/10 11:16:42;;;;;;;77.68;36.65;;;;;;;;;;6190726;28;20046;-62
2021/12/10 11:20:14;;;;;;;65.88;32.28;;;;;;;;;;6184492;28;20073;-61
2021/12/10 11:23:16;;;;;;;74.17;35.13;;;;;;;;;;6186719;28;20088;-62
2021/12/10 11:26:19;;;;;;;71.78;32.95;;;;;;;;;;6187967;28;20057;-62
2021/12/10 11:29:42;;;;;;;56.83;28.45;;;;;;;;;;6182925;28;20054;-62
2021/12/10 11:33:09;;;;;;;59.85;27.55;;;;;;;;;;6187281;28;20076;-62
2021/12/10 11:36:14;;;;;;;61.38;29.05;;;;;;;;;;6186775;28;20132;-62
2021/12/10 11:39:15;;;;;;;55.15;28.20;;;;;;;;;;6181264;28;20165;-62
2021/12/10 11:42:48;;;;;;;54.65;27.25;;;;;;;;;;6185195;28;20073;-62
2021/12/10 11:46:05;;;;;;;58.17;27.65;;;;;;;;;;6181357;28;20141;-61
2021/12/10 11:49:14;;;;;;;59.88;28.52;;;;;;;;;;6179487;28;20472;-61
2021/12/10 11:52:18;;;;;;;59.63;29.75;;;;;;;;;;6182733;28;20093;-61
2021/12/10 11:55:19;;;;;;;59.90;30.17;;;;;;;;;;6183057;28;20695;-60
2021/12/10 11:58:19;;;;;;;62.10;29.58;;;;;;;;;;6189041;28;20521;-62
2021/12/10 12:01:20;;;;;;;60.72;30.05;;;;;;;;;;6183126;28;20054;-61
2021/12/10 12:04:38;;;;;;;59.53;29.52;;;;;;;;;;6189185;28;20480;-62
2021/12/10 12:07:44;;;;;;;66.03;31.60;;;;;;;;;;6185914;28;20050;-60
2021/12/10 12:10:48;;;;;;;65.53;30.75;;;;;;;;;;6189490;28;21181;-60
2021/12/10 12:13:57;;;;;;;58.95;28.63;;;;;;;;;;6188907;28;20085;-60
2021/12/10 12:16:57;;;;;;;59.50;29.42;;;;;;;;;;6190268;28;20824;-59
2021/12/10 12:19:59;;;;;;;54.10;27.33;;;;;;;;;;6184929;28;20043;-59
2021/12/10 12:26:25;;;;;;;52.22;26.55;;;;;;;;;;6190380;28;20046;-60
2021/12/10 12:29:37;;;;;;;50.85;26.13;;;;;;;;;;6185587;28;20057;-59
2021/12/10 12:32:43;;;;;;;65.50;31.92;;;;;;;;;;6188554;28;20046;-59
2021/12/10 12:35:45;;;;;;;91.15;42.35;;;;;;;;;;6190312;28;20083;-59
2021/12/10 12:38:47;;;;;;;178.00;69.73;;;;;;;;;;6188559;28;20873;-59
2021/12/10 12:41:48;;;;;;;85.28;37.60;;;;;;;;;;6185550;28;20323;-60
2021/12/10 12:44:53;;;;;;;68.97;33.03;;;;;;;;;;6188527;28;20050;-60
2021/12/10 12:47:58;;;;;;;58.40;28.67;;;;;;;;;;6183088;28;20062;-61
2021/12/10 12:51:11;;;;;;;76.13;32.50;;;;;;;;;;6183776;28;20060;-60
2021/12/10 12:54:12;;;;;;;44.92;20.65;;;;;;;;;;6184993;28;20060;-60
2021/12/10 12:57:13;;;;;;;49.13;21.35;;;;;;;;;;6191323;28;20054;-60
2021/12/10 13:00:27;;;;;;;36.20;18.25;;;;;;;;;;6188218;28;20072;-60
2021/12/10 13:03:37;;;;;;;33.25;18.35;;;;;;;;;;6189706;28;20146;-61
2021/12/10 13:06:51;;;;;;;61.40;29.38;;;;;;;;;;6190178;28;20057;-61
2021/12/10 13:09:55;;;;;;;33.92;17.10;;;;;;;;;;6187953;28;20418;-61
2021/12/10 13:13:10;;;;;;;42.40;19.45;;;;;;;;;;6188148;28;20753;-60
2021/12/10 13:16:14;;;;;;;38.42;17.77;;;;;;;;;;6185770;28;20053;-60
2021/12/10 13:19:27;;;;;;;24.58;13.25;;;;;;;;;;6186958;28;20054;-60
2021/12/10 13:22:30;;;;;;;27.25;14.75;;;;;;;;;;6184221;28;20157;-60
2021/12/10 13:25:33;;;;;;;42.35;19.33;;;;;;;;;;6180188;28;20101;-60
2021/12/10 13:28:39;;;;;;;62.75;26.73;;;;;;;;;;6179909;28;20065;-61
2021/12/10 13:31:40;;;;;;;64.00;25.60;;;;;;;;;;6181701;28;20137;-60
2021/12/10 13:34:41;;;;;;;41.42;19.92;;;;;;;;;;6181326;28;20149;-60
2021/12/10 13:37:44;;;;;;;44.03;20.88;;;;;;;;;;6181869;28;20605;-60
2021/12/10 13:40:46;;;;;;;46.80;22.42;;;;;;;;;;6182388;28;20050;-60
2021/12/10 13:43:53;;;;;;;60.83;28.98;;;;;;;;;;6184470;28;20197;-60
2021/12/10 13:46:54;;;;;;;90.80;33.00;;;;;;;;;;6183558;28;20084;-61
2021/12/10 13:50:00;;;;;;;83.00;28.30;;;;;;;;;;6179745;28;20142;-60
2021/12/10 13:53:11;;;;;;;50.30;21.20;;;;;;;;;;6182887;28;20303;-61
2021/12/10 13:56:12;;;;;;;49.58;21.63;;;;;;;;;;6185510;28;20072;-60
2021/12/10 13:59:22;;;;;;;76.80;32.50;;;;;;;;;;6179505;28;20070;-59
2021/12/10 14:02:34;;;;;;;106.28;40.30;;;;;;;;;;6183513;28;20057;-59
2021/12/10 14:05:39;;;;;;;128.45;48.65;;;;;;;;;;6184193;28;20702;-59
2021/12/10 14:08:41;;;;;;;141.60;50.67;;;;;;;;;;6181649;28;20057;-60
2021/12/10 14:12:02;;;;;;;171.15;59.97;;;;;;;;;;6186276;28;20050;-60
2021/12/10 14:15:09;;;;;;;141.73;51.67;;;;;;;;;;6181113;28;20350;-61
2021/12/10 14:18:16;;;;;;;86.45;35.95;;;;;;;;;;6179106;28;20519;-60
2021/12/10 14:21:21;;;;;;;64.75;29.10;;;;;;;;;;6184755;28;20066;-60
2021/12/10 14:24:54;;;;;;;55.50;29.58;;;;;;;;;;6184105;28;20124;-60
2021/12/10 14:27:58;;;;;;;;;;;;;;;;;;6183802;28;20509;-61
2021/12/10 14:30:59;;;;;;;58.65;27.58;;;;;;;;;;6182840;28;20419;-60
2021/12/10 14:34:07;;;;;;;86.73;38.40;;;;;;;;;;6186682;28;20053;-61
2021/12/10 14:37:12;;;;;;;96.45;40.05;;;;;;;;;;6185040;28;20051;-61
2021/12/10 14:40:15;;;;;;;102.00;45.00;;;;;;;;;;6185491;28;20081;-64
2021/12/10 14:43:35;;;;;;;114.43;46.97;;;;;;;;;;6183155;28;20149;-62
2021/12/10 14:46:40;;;;;;;116.70;47.95;;;;;;;;;;6185283;28;20066;-60
2021/12/10 14:49:49;;;;;;;150.15;55.78;;;;;;;;;;6183304;28;20053;-61
2021/12/10 14:52:50;;;;;;;136.65;53.35;;;;;;;;;;6188297;28;20109;-60
2021/12/10 14:55:51;;;;;;;133.45;57.50;;;;;;;;;;6183353;28;20132;-62
2021/12/10 14:59:12;;;;;;;113.68;50.63;;;;;;;;;;6195476;28;20052;-59
2021/12/10 15:02:27;;;;;;;117.18;51.83;;;;;;;;;;6194372;28;20054;-59
2021/12/10 15:05:37;;;;;;;104.75;46.70;;;;;;;;;;6191849;28;20532;-60
2021/12/10 15:09:05;;;;;;;93.00;41.60;;;;;;;;;;6193514;28;20647;-60
2021/12/10 15:12:09;;;;;;;84.70;37.97;;;;;;;;;;6192252;28;20131;-60
2021/12/10 15:15:09;;;;;;;95.30;41.20;;;;;;;;;;6193241;28;20058;-60
2021/12/10 15:18:31;;;;;;;94.05;41.78;;;;;;;;;;6195617;28;20092;-60
2021/12/10 15:21:46;;;;;;;93.68;45.33;;;;;;;;;;6195396;28;20049;-62
2021/12/10 15:24:55;;;;;;;94.63;42.97;;;;;;;;;;6194308;28;20076;-61
2021/12/10 15:27:59;;;;;;;92.03;43.15;;;;;;;;;;6191489;28;20386;-61
2021/12/10 15:31:00;;;;;;;71.03;34.67;;;;;;;;;;6192097;28;20668;-62
2021/12/10 15:34:01;;;;;;;79.07;36.78;;;;;;;;;;6188143;28;20211;-61
2021/12/10 15:37:05;;;;;;;87.55;38.50;;;;;;;;;;6194942;28;20068;-62
2021/12/10 15:40:25;;;;;;;83.18;37.35;;;;;;;;;;6187862;28;20077;-60
2021/12/10 15:43:36;;;;;;;85.63;38.13;;;;;;;;;;6185438;28;20065;-62
2021/12/10 15:46:45;;;;;;;100.35;43.80;;;;;;;;;;6195151;28;20068;-62
2021/12/10 15:49:48;;;;;;;114.65;46.88;;;;;;;;;;6190812;28;20073;-62
2021/12/10 15:53:06;;;;;;;103.40;42.90;;;;;;;;;;6183751;28;20042;-61
2021/12/10 15:56:23;;;;;;;83.90;37.75;;;;;;;;;;6187861;28;20062;-61
2021/12/10 15:59:26;;;;;;;83.13;35.67;;;;;;;;;;6187431;28;20938;-64
2021/12/10 16:02:28;;;;;;;70.80;33.72;;;;;;;;;;6191710;28;20128;-62
2021/12/10 16:05:29;;;;;;;77.45;35.72;;;;;;;;;;6193350;28;20052;-62
2021/12/10 16:08:38;;;;;;;89.53;39.95;;;;;;;;;;6189901;28;20749;-61
2021/12/10 16:11:44;;;;;;;71.47;34.80;;;;;;;;;;6189297;28;20084;-63
2021/12/10 16:14:47;;;;;;;62.65;31.38;;;;;;;;;;6188294;28;20116;-62
2021/12/10 16:17:50;;;;;;;55.08;29.17;;;;;;;;;;6188030;28;20084;-61
2021/12/10 16:20:57;;;;;;;60.95;30.17;;;;;;;;;;6190319;28;20767;-60
2021/12/10 16:24:06;;;;;;;69.97;32.13;;;;;;;;;;6193861;28;20043;-62
2021/12/10 16:27:15;;;;;;;63.85;32.20;;;;;;;;;;6188698;28;20086;-61
2021/12/10 16:30:18;;;;;;;69.22;33.00;;;;;;;;;;6186843;28;20116;-61
2021/12/10 16:33:20;;;;;;;67.85;31.40;;;;;;;;;;6188632;28;20182;-61
2021/12/10 16:36:22;;;;;;;66.93;31.13;;;;;;;;;;6189436;28;20042;-62
2021/12/10 16:39:24;;;;;;;73.82;32.03;;;;;;;;;;6191530;28;20093;-62
2021/12/10 16:42:25;;;;;;;66.80;33.13;;;;;;;;;;6189239;28;20054;-61
2021/12/10 16:45:28;;;;;;;66.10;31.35;;;;;;;;;;6190088;28;20561;-63
2021/12/10 16:48:34;;;;;;;69.57;30.88;;;;;;;;;;6185360;28;20394;-62
2021/12/10 16:51:42;;;;;;;65.68;31.95;;;;;;;;;;6188601;28;20582;-61
2021/12/10 16:54:43;;;;;;;86.18;38.75;;;;;;;;;;6187609;28;20424;-60
2021/12/10 16:57:46;;;;;;;94.72;43.17;;;;;;;;;;6187929;28;20597;-60
2021/12/10 17:00:51;;;;;;;80.40;37.72;;;;;;;;;;6189622;28;20053;-61
2021/12/10 17:03:54;;;;;;;83.40;38.22;;;;;;;;;;6191962;28;20970;-60
2021/12/10 17:07:03;;;;;;;94.68;43.08;;;;;;;;;;6192667;28;20887;-60
2021/12/10 17:10:17;;;;;;;90.90;41.00;;;;;;;;;;6188108;28;20599;-60
2021/12/10 17:13:26;;;;;;;97.15;44.13;;;;;;;;;;6183871;28;20054;-60
2021/12/10 17:16:31;;;;;;;100.28;43.78;;;;;;;;;;6184916;28;20093;-60
2021/12/10 17:19:43;;;;;;;105.43;47.67;;;;;;;;;;6186077;28;20049;-60
2021/12/10 17:22:46;;;;;;;101.75;45.72;;;;;;;;;;6189127;28;20075;-60
2021/12/10 17:25:54;;;;;;;118.55;49.47;;;;;;;;;;6186134;28;20051;-60
2021/12/10 17:29:01;;;;;;;115.57;47.13;;;;;;;;;;6186501;28;20152;-60
2021/12/10 17:32:08;;;;;;;119.28;47.95;;;;;;;;;;6186949;28;20050;-60
2021/12/10 17:35:14;;;;;;;119.97;48.60;;;;;;;;;;6190328;28;20136;-61
2021/12/10 17:38:16;;;;;;;111.38;46.15;;;;;;;;;;6186804;28;20089;-60
2021/12/10 17:41:24;;;;;;;119.18;49.67;;;;;;;;;;6188671;28;20281;-60
2021/12/10 17:44:25;;;;;;;180.30;69.85;;;;;;;;;;6190959;28;20047;-60
2021/12/10 17:47:37;;;;;;;154.50;60.17;;;;;;;;;;6188703;28;20310;-60
2021/12/10 17:50:41;;;;;;;173.75;70.95;;;;;;;;;;6192243;28;20201;-60
2021/12/10 17:53:42;;;;;;;209.38;76.00;;;;;;;;;;6190586;28;20456;-60
2021/12/10 17:56:43;;;;;;;203.05;76.43;;;;;;;;;;6189215;28;20057;-61
2021/12/10 17:59:45;;;;;;;169.40;65.72;;;;;;;;;;6193055;28;20086;-60
2021/12/10 18:02:46;;;;;;;161.25;63.15;;;;;;;;;;6189510;28;20046;-60
2021/12/10 18:05:49;;;;;;;145.52;59.58;;;;;;;;;;6191470;28;20077;-60
2021/12/10 18:08:50;;;;;;;162.05;63.00;;;;;;;;;;6196537;28;20044;-63
2021/12/10 18:12:27;;;;;;;192.38;80.68;;;;;;;;;;6190220;28;20042;-62
2021/12/10 18:15:36;;;;;;;192.73;79.30;;;;;;;;;;6188046;28;20042;-62
2021/12/10 18:18:41;;;;;;;185.93;78.00;;;;;;;;;;6188396;28;20145;-60
2021/12/10 18:21:45;;;;;;;197.55;79.38;;;;;;;;;;6192960;28;20055;-59
2021/12/10 18:24:50;;;;;;;204.45;89.18;;;;;;;;;;6186625;28;20061;-60
2021/12/10 18:27:53;;;;;;;201.77;80.65;;;;;;;;;;6185952;28;20520;-60
2021/12/10 18:30:59;;;;;;;189.63;75.68;;;;;;;;;;6190880;28;20085;-60
2021/12/10 18:34:04;;;;;;;181.07;75.22;;;;;;;;;;6192495;28;20062;-60